Time;durP1;ratioP1;P1;durP2;ratioP2;P2;SDS_P1;SDS_P2;PMS_P1;PMS_P2;Temp;Humidity;BMP_temperature;BMP_pressure;BME280_temperature;BME280_humidity;BME280_pressure;Samples;Min_cycle;Max_cycle;Signal;HPM_P1;HPM_P2
2023/10/11 00:01:03;;;;;;;12.00;8.35;;;19.10;66.90;;;;;;5091855;28;20256;-64
2023/10/11 00:03:33;;;;;;;14.18;9.18;;;19.20;67.10;;;;;;5091672;28;20186;-65
2023/10/11 00:06:04;;;;;;;12.13;8.60;;;19.20;67.10;;;;;;5091894;28;20186;-64
2023/10/11 00:08:39;;;;;;;11.85;8.65;;;19.20;67.10;;;;;;5091634;28;20203;-63
2023/10/11 00:11:08;;;;;;;12.35;8.05;;;19.20;67.10;;;;;;5091994;28;20186;-64
2023/10/11 00:13:36;;;;;;;10.88;8.13;;;19.10;66.90;;;;;;5091752;28;20214;-64
2023/10/11 00:16:08;;;;;;;10.05;8.18;;;19.20;67.10;;;;;;5091990;28;20536;-64
2023/10/11 00:18:37;;;;;;;14.35;8.43;;;19.10;67.00;;;;;;5091727;28;20252;-65
2023/10/11 00:21:10;;;;;;;12.73;8.52;;;19.20;67.10;;;;;;5091690;28;20182;-64
2023/10/11 00:23:39;;;;;;;12.95;8.27;;;19.20;67.10;;;;;;5091565;28;20307;-65
2023/10/11 00:26:07;;;;;;;11.15;8.48;;;19.10;67.10;;;;;;5091940;28;20183;-65
2023/10/11 00:28:37;;;;;;;10.60;7.50;;;19.20;67.10;;;;;;5093098;28;20326;-64
2023/10/11 00:31:12;;;;;;;11.43;8.48;;;19.10;67.10;;;;;;5095053;28;20194;-64
2023/10/11 00:33:41;;;;;;;12.70;8.13;;;19.10;67.00;;;;;;5095427;28;20304;-64
2023/10/11 00:36:08;;;;;;;14.30;8.23;;;19.20;67.20;;;;;;5095202;28;20273;-64
2023/10/11 00:38:47;;;;;;;13.68;8.07;;;19.20;67.20;;;;;;5094871;28;20704;-64
2023/10/11 00:41:17;;;;;;;12.60;8.70;;;19.10;67.10;;;;;;5095190;28;20248;-63
2023/10/11 00:43:49;;;;;;;11.10;8.30;;;19.10;67.10;;;;;;5094677;28;20725;-64
2023/10/11 00:46:21;;;;;;;14.25;8.10;;;19.10;67.10;;;;;;5095119;28;20186;-64
2023/10/11 00:48:53;;;;;;;10.20;8.05;;;19.10;67.10;;;;;;5095016;28;20221;-62
2023/10/11 00:51:24;;;;;;;10.43;8.30;;;19.10;67.10;;;;;;5094871;28;20193;-65
2023/10/11 00:56:48;;;;;;;11.15;8.68;;;19.10;67.20;;;;;;5094537;28;20218;-64
2023/10/11 00:59:21;;;;;;;13.50;8.68;;;19.20;67.40;;;;;;5094505;28;20752;-65
2023/10/11 01:01:50;;;;;;;12.95;7.53;;;19.20;67.30;;;;;;5094888;28;20197;-65
2023/10/11 01:04:18;;;;;;;13.07;8.98;;;19.10;68.00;;;;;;5095276;28;20218;-64
2023/10/11 01:06:48;;;;;;;14.60;8.07;;;19.10;67.20;;;;;;5094542;28;20263;-65
2023/10/11 01:09:17;;;;;;;12.65;8.35;;;19.10;67.30;;;;;;5094463;28;20306;-65
2023/10/11 01:14:37;;;;;;;16.70;9.00;;;19.10;67.30;;;;;;5032048;28;20220;-64
2023/10/11 01:17:07;;;;;;;12.52;8.38;;;19.10;67.30;;;;;;5031765;28;20275;-64
2023/10/11 01:19:36;;;;;;;13.40;8.85;;;19.10;67.30;;;;;;5094334;28;20241;-64
2023/10/11 01:22:05;;;;;;;14.18;8.73;;;19.10;67.30;;;;;;5094547;28;20272;-64
2023/10/11 01:24:33;;;;;;;15.32;8.98;;;19.10;67.30;;;;;;5094505;28;20301;-64
2023/10/11 01:27:00;;;;;;;12.13;8.88;;;19.10;67.30;;;;;;5094165;28;20251;-64
2023/10/11 01:29:28;;;;;;;13.15;8.48;;;19.10;67.30;;;;;;5092937;28;20238;-64
2023/10/11 01:31:56;;;;;;;15.07;8.45;;;19.10;67.30;;;;;;5088760;28;20207;-64
2023/10/11 01:34:27;;;;;;;14.73;8.63;;;19.10;67.30;;;;;;5073814;28;20226;-65
2023/10/11 01:36:54;;;;;;;16.77;9.02;;;19.10;67.40;;;;;;5073744;28;20253;-65
2023/10/11 01:39:23;;;;;;;13.40;8.65;;;19.10;67.30;;;;;;5073381;28;20258;-64
2023/10/11 01:41:54;;;;;;;11.60;8.57;;;19.10;67.40;;;;;;5073639;28;20203;-65
2023/10/11 01:44:42;;;;;;;15.10;8.85;;;19.10;67.30;;;;;;5073549;28;20219;-64
2023/10/11 01:47:09;;;;;;;12.60;8.70;;;19.10;67.40;;;;;;5072329;28;20296;-65
2023/10/11 01:49:39;;;;;;;13.18;8.68;;;19.10;67.40;;;;;;5073526;28;20211;-65
2023/10/11 01:52:07;;;;;;;12.60;8.75;;;19.10;67.40;;;;;;5073414;28;20191;-64
2023/10/11 01:54:36;;;;;;;13.02;8.60;;;19.10;68.20;;;;;;5073370;28;20700;-64
2023/10/11 01:57:03;;;;;;;13.95;9.07;;;19.10;67.40;;;;;;5072942;28;20281;-65
2023/10/11 01:59:31;;;;;;;13.77;8.70;;;19.10;67.40;;;;;;5073260;28;20222;-64
2023/10/11 02:02:02;;;;;;;14.98;9.63;;;19.10;67.40;;;;;;5073455;28;20213;-64
2023/10/11 02:04:30;;;;;;;14.25;8.52;;;19.10;67.40;;;;;;5073014;28;20280;-64
2023/10/11 02:06:58;;;;;;;13.35;8.98;;;19.10;67.40;;;;;;5073154;28;20194;-65
2023/10/11 02:09:31;;;;;;;12.55;9.07;;;19.10;67.40;;;;;;5072797;28;20250;-64
2023/10/11 02:12:09;;;;;;;16.27;8.55;;;19.00;67.30;;;;;;5072959;28;20206;-65
2023/10/11 02:14:47;;;;;;;13.38;8.88;;;19.10;67.40;;;;;;5073381;28;20227;-64
2023/10/11 02:17:18;;;;;;;11.57;8.15;;;19.10;67.40;;;;;;5072997;28;20229;-65
2023/10/11 02:19:46;;;;;;;11.88;8.40;;;19.10;67.40;;;;;;5072906;28;20720;-65
2023/10/11 02:22:13;;;;;;;12.23;8.77;;;19.00;67.40;;;;;;5073606;28;20183;-64
2023/10/11 02:24:41;;;;;;;11.75;8.50;;;19.00;67.40;;;;;;5073140;28;20219;-65
2023/10/11 02:27:17;;;;;;;14.85;9.00;;;19.00;67.40;;;;;;5072642;28;20213;-63
2023/10/11 02:29:47;;;;;;;11.75;7.93;;;19.10;67.50;;;;;;5073055;28;20230;-64
2023/10/11 02:32:15;;;;;;;13.85;8.93;;;19.10;67.50;;;;;;5072606;28;20668;-65
2023/10/11 02:34:43;;;;;;;17.10;9.18;;;19.00;67.40;;;;;;5072740;28;20229;-64
2023/10/11 02:37:11;;;;;;;12.32;7.97;;;19.00;67.40;;;;;;5072452;28;20242;-65
2023/10/11 02:39:44;;;;;;;13.70;8.95;;;19.10;67.50;;;;;;5072899;28;20254;-64
2023/10/11 02:42:19;;;;;;;10.85;8.02;;;19.00;67.50;;;;;;5072155;28;20191;-65
2023/10/11 02:44:48;;;;;;;14.43;9.27;;;19.00;67.40;;;;;;5072894;28;20210;-65
2023/10/11 02:47:22;;;;;;;14.00;8.45;;;19.00;67.40;;;;;;5072291;28;20190;-64
2023/10/11 02:49:52;;;;;;;13.13;9.00;;;19.00;67.40;;;;;;5072625;28;20214;-64
2023/10/11 02:52:19;;;;;;;11.98;8.30;;;19.00;67.40;;;;;;5072444;28;20191;-64
2023/10/11 02:54:46;;;;;;;11.60;8.30;;;19.10;67.50;;;;;;5072422;28;20230;-65
2023/10/11 02:57:19;;;;;;;11.82;8.55;;;19.00;67.40;;;;;;5072069;28;20186;-63
2023/10/11 02:59:50;;;;;;;14.45;8.38;;;19.00;67.40;;;;;;5072434;28;20241;-64
2023/10/11 03:02:18;;;;;;;13.35;8.57;;;19.10;67.50;;;;;;5072489;28;20183;-65
2023/10/11 03:04:45;;;;;;;11.23;8.07;;;19.10;67.50;;;;;;5072368;28;20214;-65
2023/10/11 03:07:21;;;;;;;14.55;8.43;;;19.10;67.60;;;;;;5072064;28;20268;-63
2023/10/11 03:09:48;;;;;;;13.10;8.85;;;19.10;67.50;;;;;;5072484;28;20246;-65
2023/10/11 03:12:19;;;;;;;16.90;9.02;;;19.00;67.50;;;;;;5071792;28;20201;-65
2023/10/11 03:14:47;;;;;;;13.05;8.68;;;19.10;67.60;;;;;;5072357;28;20214;-65
2023/10/11 03:17:15;;;;;;;14.88;8.30;;;19.00;67.50;;;;;;5071956;28;20193;-64
2023/10/11 03:19:43;;;;;;;12.40;8.38;;;19.00;67.50;;;;;;5072137;28;20237;-64
2023/10/11 03:22:12;;;;;;;11.68;7.80;;;19.00;67.50;;;;;;5072322;28;20203;-64
2023/10/11 03:24:53;;;;;;;11.65;7.85;;;19.10;67.60;;;;;;5072076;28;20210;-65
2023/10/11 03:27:23;;;;;;;14.48;8.35;;;19.10;67.60;;;;;;5022291;28;20263;-63
2023/10/11 03:29:56;;;;;;;10.18;7.40;;;19.00;68.30;;;;;;5072253;28;20215;-65
2023/10/11 03:35:07;;;;;;;12.85;8.43;;;19.10;67.60;;;;;;5070512;28;20222;-64
2023/10/11 03:37:37;;;;;;;10.88;8.48;;;19.10;67.60;;;;;;5071980;28;20237;-65
2023/10/11 03:40:26;;;;;;;12.15;8.32;;;19.00;67.50;;;;;;5072015;28;20305;-65
2023/10/11 03:42:59;;;;;;;12.95;8.43;;;19.10;67.60;;;;;;5072103;28;20206;-64
2023/10/11 03:45:27;;;;;;;12.43;7.70;;;19.00;67.50;;;;;;5072536;28;20219;-65
2023/10/11 03:47:56;;;;;;;13.10;8.38;;;19.00;67.60;;;;;;5071746;28;20187;-65
2023/10/11 03:50:33;;;;;;;13.55;8.25;;;19.10;67.70;;;;;;5072179;28;20297;-64
2023/10/11 03:53:10;;;;;;;13.82;8.40;;;19.00;67.60;;;;;;5072089;28;20183;-64
2023/10/11 03:55:45;;;;;;;15.95;8.50;;;19.00;67.60;;;;;;5072014;28;20215;-63
2023/10/11 03:58:28;;;;;;;13.07;8.25;;;19.00;67.60;;;;;;5071777;28;20640;-63
2023/10/11 04:01:01;;;;;;;11.02;7.80;;;19.00;67.60;;;;;;5071803;28;20701;-65
2023/10/11 04:03:28;;;;;;;12.70;8.30;;;19.00;67.60;;;;;;5073267;28;20540;-65
2023/10/11 04:05:58;;;;;;;13.35;8.48;;;19.00;67.60;;;;;;5075534;28;20226;-64
2023/10/11 04:08:26;;;;;;;12.30;8.55;;;19.00;67.60;;;;;;5075663;28;20195;-65
2023/10/11 04:10:54;;;;;;;15.52;9.55;;;19.00;67.60;;;;;;5075360;28;20211;-64
2023/10/11 04:13:26;;;;;;;14.25;7.80;;;19.00;67.60;;;;;;5075653;28;20187;-65
2023/10/11 04:15:58;;;;;;;12.65;7.85;;;19.00;67.60;;;;;;5075600;28;20211;-65
2023/10/11 04:18:37;;;;;;;12.48;7.80;;;19.00;67.60;;;;;;5075167;28;20304;-65
2023/10/11 04:24:01;;;;;;;10.23;7.20;;;19.00;67.60;;;;;;5013237;28;20212;-63
2023/10/11 04:26:37;;;;;;;13.23;8.48;;;19.00;67.60;;;;;;5062051;28;20203;-65
2023/10/11 04:29:16;;;;;;;12.73;8.02;;;19.00;67.70;;;;;;5074945;28;20313;-64
2023/10/11 04:31:55;;;;;;;11.40;7.82;;;19.00;67.70;;;;;;5074999;28;20202;-64
2023/10/11 04:34:31;;;;;;;11.88;7.70;;;19.00;67.70;;;;;;5074882;28;20258;-64
2023/10/11 04:36:59;;;;;;;9.63;7.30;;;19.00;67.70;;;;;;5075206;28;20277;-64
2023/10/11 04:39:34;;;;;;;11.52;8.10;;;19.00;67.70;;;;;;5074941;28;20292;-65
2023/10/11 04:42:02;;;;;;;13.15;8.25;;;19.00;67.70;;;;;;5074975;28;20187;-64
2023/10/11 04:44:42;;;;;;;11.40;7.40;;;19.00;67.70;;;;;;5074825;28;20250;-65
2023/10/11 04:53:17;;;;;;;11.50;7.75;;;19.00;67.70;;;;;;5012919;28;20287;-65
2023/10/11 04:55:47;;;;;;;12.35;8.25;;;19.00;67.70;;;;;;5067465;28;20217;-63
2023/10/11 04:58:39;;;;;;;10.63;7.57;;;19.00;67.70;;;;;;5074636;28;20625;-64
2023/10/11 05:01:11;;;;;;;11.43;7.35;;;19.00;67.70;;;;;;5074456;28;20732;-65
2023/10/11 05:03:38;;;;;;;13.38;7.95;;;18.90;67.60;;;;;;5074485;28;20202;-63
2023/10/11 05:06:14;;;;;;;14.00;7.95;;;19.00;67.80;;;;;;5074237;28;20198;-64
2023/10/11 05:09:03;;;;;;;12.25;7.82;;;19.00;67.80;;;;;;5074424;28;20190;-64
2023/10/11 05:11:36;;;;;;;13.05;8.07;;;19.00;67.80;;;;;;5074511;28;20197;-65
2023/10/11 05:14:28;;;;;;;12.75;7.80;;;19.00;67.80;;;;;;5074053;28;20215;-63
2023/10/11 05:17:16;;;;;;;11.38;7.93;;;19.00;67.80;;;;;;5073874;28;20708;-65
2023/10/11 05:19:45;;;;;;;15.98;8.20;;;19.00;67.80;;;;;;5073976;28;20714;-63
2023/10/11 05:22:17;;;;;;;11.95;7.55;;;19.00;67.80;;;;;;5074209;28;20194;-63
2023/10/11 05:25:12;;;;;;;11.15;7.70;;;19.00;67.80;;;;;;5074032;28;20629;-65
2023/10/11 05:27:47;;;;;;;14.32;7.75;;;19.00;67.80;;;;;;5073908;28;20191;-64
2023/10/11 05:30:28;;;;;;;10.55;7.68;;;18.90;67.70;;;;;;5074134;28;20222;-65
2023/10/11 05:33:09;;;;;;;13.30;8.50;;;19.00;67.80;;;;;;5073754;28;20201;-65
2023/10/11 05:36:14;;;;;;;12.52;8.25;;;18.90;67.70;;;;;;5073623;28;20276;-64
2023/10/11 05:52:28;;;;;;;14.05;8.10;;;19.00;67.80;;;;;;5073502;28;20316;-63
2023/10/11 05:54:57;;;;;;;12.88;7.85;;;18.90;67.70;;;;;;5073370;28;20223;-64
2023/10/11 05:57:27;;;;;;;11.70;8.10;;;18.90;67.80;;;;;;5073503;28;20183;-65
2023/10/11 05:59:55;;;;;;;12.68;8.27;;;18.90;67.80;;;;;;5073087;28;20339;-63
2023/10/11 06:02:25;;;;;;;13.30;8.25;;;18.90;67.70;;;;;;5073295;28;20219;-64
2023/10/11 06:05:12;;;;;;;13.77;7.95;;;19.00;67.90;;;;;;5073473;28;20226;-62
2023/10/11 06:10:42;;;;;;;13.38;7.82;;;19.00;67.90;;;;;;5068135;28;20233;-64
2023/10/11 06:13:13;;;;;;;14.50;7.95;;;18.90;67.80;;;;;;5072877;28;20206;-64
2023/10/11 06:15:58;;;;;;;13.65;7.95;;;19.00;67.80;;;;;;5072941;28;20219;-64
2023/10/11 06:21:24;;;;;;;12.43;8.40;;;18.90;67.80;;;;;;5068155;28;20210;-62
2023/10/11 06:23:53;;;;;;;14.75;8.10;;;19.00;67.90;;;;;;5073019;28;20187;-64
2023/10/11 06:26:56;;;;;;;11.63;8.35;;;18.90;67.80;;;;;;5072216;28;20265;-63
2023/10/11 06:29:23;;;;;;;10.75;7.95;;;18.90;67.80;;;;;;5072775;28;20251;-63
2023/10/11 06:31:50;;;;;;;13.90;8.13;;;18.90;67.70;;;;;;5072930;28;20633;-64
2023/10/11 06:34:24;;;;;;;12.77;8.25;;;18.90;67.80;;;;;;5072908;28;20215;-64
2023/10/11 06:36:53;;;;;;;12.63;9.00;;;18.90;67.80;;;;;;5072942;28;20191;-64
2023/10/11 06:40:07;;;;;;;13.07;7.63;;;18.90;67.80;;;;;;5072264;28;20696;-64
2023/10/11 06:42:23;;;;;;;13.20;7.88;;;19.00;67.90;;;;;;5072469;28;20209;-65
2023/10/11 06:44:54;;;;;;;11.80;8.27;;;18.90;67.80;;;;;;5072458;28;20770;-64
2023/10/11 06:47:22;;;;;;;11.10;8.25;;;18.90;67.80;;;;;;5065739;28;20198;-65
2023/10/11 06:49:54;;;;;;;11.18;8.07;;;18.90;67.70;;;;;;5070839;28;20214;-64
2023/10/11 06:52:26;;;;;;;11.18;7.85;;;19.00;67.90;;;;;;5071441;28;20672;-65
2023/10/11 06:55:16;;;;;;;11.40;8.13;;;19.00;67.80;;;;;;5047967;28;20218;-65
2023/10/11 06:57:50;;;;;;;14.80;8.13;;;19.00;67.90;;;;;;5050232;28;20199;-65
2023/10/11 07:00:37;;;;;;;13.05;8.85;;;19.10;68.10;;;;;;5063315;28;20230;-65
2023/10/11 07:03:21;;;;;;;11.88;8.35;;;19.00;67.90;;;;;;5057981;28;20680;-64
2023/10/11 07:05:50;;;;;;;11.05;7.63;;;19.10;68.00;;;;;;5064032;28;20688;-64
2023/10/11 07:08:31;;;;;;;12.13;7.43;;;19.10;67.90;;;;;;5069002;28;20201;-65
2023/10/11 07:11:03;;;;;;;14.57;8.35;;;19.10;67.90;;;;;;5061926;28;20222;-64
2023/10/11 07:13:49;;;;;;;14.65;8.20;;;19.20;68.00;;;;;;5062590;28;20222;-65
2023/10/11 07:16:19;;;;;;;22.23;8.38;;;19.20;68.10;;;;;;5069041;28;20295;-65
2023/10/11 07:21:48;;;;;;;14.30;8.98;;;19.30;68.20;;;;;;5069219;28;20215;-65
2023/10/11 07:24:55;;;;;;;13.65;8.25;;;19.30;68.10;;;;;;5069933;28;20194;-66
2023/10/11 07:27:37;;;;;;;11.60;8.05;;;19.30;68.10;;;;;;4981406;28;20281;-65
2023/10/11 07:30:16;;;;;;;12.95;8.65;;;19.30;68.20;;;;;;5031006;28;20343;-65
2023/10/11 07:32:44;;;;;;;15.40;8.52;;;19.30;68.60;;;;;;5050759;28;20196;-65
2023/10/11 07:35:27;;;;;;;14.60;8.35;;;19.40;68.70;;;;;;5050692;28;20527;-65
2023/10/11 07:37:56;;;;;;;13.60;9.05;;;19.50;68.90;;;;;;5051213;28;20196;-66
2023/10/11 07:40:46;;;;;;;12.70;8.32;;;19.50;68.80;;;;;;5054628;28;20788;-63
2023/10/11 07:43:16;;;;;;;15.43;8.57;;;19.60;68.70;;;;;;5055102;28;20191;-65
2023/10/11 07:49:16;;;;;;;18.55;8.88;;;19.70;68.60;;;;;;4993070;28;20196;-65
2023/10/11 07:51:44;;;;;;;16.83;8.38;;;19.70;68.40;;;;;;4987020;28;20219;-65
2023/10/11 07:54:19;;;;;;;24.15;9.32;;;19.80;68.20;;;;;;4992402;28;20205;-65
2023/10/11 07:56:56;;;;;;;23.10;8.88;;;19.80;68.20;;;;;;4983064;28;20229;-65
2023/10/11 07:59:30;;;;;;;20.75;8.43;;;19.80;68.20;;;;;;4992345;28;20225;-66
2023/10/11 08:02:09;;;;;;;28.27;8.88;;;19.80;68.20;;;;;;4993089;28;20283;-65
2023/10/11 08:10:52;;;;;;;15.48;9.18;;;19.90;68.00;;;;;;4898608;29;20280;-65
2023/10/11 08:13:24;;;;;;;16.92;8.25;;;19.90;68.00;;;;;;4880172;29;20205;-65
2023/10/11 08:16:18;;;;;;;17.15;8.65;;;19.90;68.00;;;;;;4889336;29;20335;-65
2023/10/11 08:18:49;;;;;;;17.58;9.48;;;19.90;68.10;;;;;;4883621;28;20672;-65
2023/10/11 08:21:23;;;;;;;13.23;8.15;;;20.00;68.10;;;;;;4965670;28;20273;-64
2023/10/11 08:24:24;;;;;;;14.60;8.50;;;20.00;68.10;;;;;;4942247;28;20626;-62
2023/10/11 08:26:53;;;;;;;34.28;9.13;;;20.00;67.90;;;;;;4968140;28;20238;-61
2023/10/11 08:29:31;;;;;;;43.83;9.93;;;20.00;67.80;;;;;;4968909;28;20312;-66
2023/10/11 08:35:31;;;;;;;15.90;8.23;;;20.10;67.80;;;;;;5030073;28;20227;-65
2023/10/11 08:38:02;;;;;;;18.35;9.13;;;20.10;67.80;;;;;;5051379;28;20223;-65
2023/10/11 08:44:26;;;;;;;16.85;8.15;;;20.20;67.60;;;;;;5051009;28;20743;-63
2023/10/11 08:47:01;;;;;;;16.13;8.68;;;20.20;67.60;;;;;;5034787;28;20246;-65
2023/10/11 08:53:41;;;;;;;;;;;;;;;;;;;;;
2023/10/11 08:56:19;;;;;;;13.60;7.82;;;20.20;67.60;;;;;;5022265;28;20227;-65
2023/10/11 09:02:26;;;;;;;16.77;8.02;;;20.20;67.60;;;;;;4967774;28;20237;-64
2023/10/11 09:05:06;;;;;;;16.63;8.55;;;20.20;67.50;;;;;;5027324;28;20203;-65
2023/10/11 09:07:45;;;;;;;13.43;8.15;;;20.10;67.30;;;;;;5045719;28;20227;-64
2023/10/11 09:10:33;;;;;;;12.25;8.00;;;20.10;67.70;;;;;;5024053;28;20198;-67
2023/10/11 09:13:17;;;;;;;17.77;8.55;;;20.20;67.60;;;;;;5046217;28;20293;-64
2023/10/11 09:15:54;;;;;;;31.65;8.00;;;20.20;67.70;;;;;;5025456;28;20300;-65
2023/10/11 09:18:56;;;;;;;15.38;8.55;;;20.30;67.60;;;;;;5042748;28;20203;-64
2023/10/11 09:21:29;;;;;;;18.73;8.45;;;20.30;67.40;;;;;;5041111;28;20572;-65
2023/10/11 09:24:01;;;;;;;17.98;7.45;;;20.30;67.30;;;;;;5047297;28;20204;-64
2023/10/11 09:30:01;;;;;;;18.70;8.10;;;20.30;67.30;;;;;;4951823;28;20232;-62
2023/10/11 09:33:24;;;;;;;10.55;7.30;;;20.30;67.30;;;;;;5031911;28;20310;-66
2023/10/11 09:36:07;;;;;;;13.85;7.68;;;20.20;67.20;;;;;;4993996;28;20688;-64
2023/10/11 09:38:40;;;;;;;12.38;7.72;;;20.30;67.20;;;;;;4977045;28;20210;-64
2023/10/11 09:41:09;;;;;;;11.98;7.18;;;20.30;67.30;;;;;;4996247;28;20326;-64
2023/10/11 09:43:46;;;;;;;13.18;7.90;;;20.30;67.30;;;;;;4953368;28;20225;-63
2023/10/11 09:48:57;;;;;;;17.70;7.40;;;20.40;67.60;;;;;;4932639;28;20263;-66
2023/10/11 09:51:38;;;;;;;14.02;6.95;;;20.40;67.60;;;;;;4939577;28;20287;-66
2023/10/11 09:54:12;;;;;;;12.07;7.13;;;20.40;67.40;;;;;;4980151;28;20257;-66
2023/10/11 10:00:14;;;;;;;10.38;7.40;;;20.50;67.50;;;;;;5030870;28;20700;-65
2023/10/11 10:12:40;;;;;;;11.02;6.70;;;20.50;67.00;;;;;;5004048;28;20228;-66
2023/10/11 10:15:23;;;;;;;11.32;7.63;;;20.60;66.90;;;;;;5006791;28;20284;-66
2023/10/11 10:18:19;;;;;;;14.55;7.43;;;20.50;66.60;;;;;;5011885;28;20221;-66
2023/10/11 10:20:48;;;;;;;12.98;7.68;;;20.60;66.70;;;;;;5049689;28;20563;-66
2023/10/11 10:23:35;;;;;;;10.43;6.63;;;20.60;66.60;;;;;;5031017;28;20215;-66
2023/10/11 10:26:32;;;;;;;12.20;7.18;;;20.60;66.50;;;;;;5048013;28;20194;-65
2023/10/11 10:30:10;;;;;;;10.93;6.72;;;20.60;67.40;;;;;;4158173;28;25570131;-66
2023/10/11 10:33:18;;;;;;;9.40;6.30;;;20.60;66.60;;;;;;5068785;28;20245;-66
2023/10/11 10:35:48;;;;;;;10.35;6.28;;;20.70;66.70;;;;;;5033486;28;20737;-66
2023/10/11 10:38:22;;;;;;;11.25;6.38;;;20.70;66.70;;;;;;5070148;28;20229;-66
2023/10/11 10:41:25;;;;;;;11.50;6.65;;;20.60;66.50;;;;;;5068866;28;20210;-65
2023/10/11 10:44:06;;;;;;;9.63;6.80;;;20.70;66.70;;;;;;5068708;28;20222;-67
2023/10/11 10:46:33;;;;;;;10.48;6.45;;;20.70;66.50;;;;;;5067294;28;20183;-66
2023/10/11 10:49:03;;;;;;;8.20;6.03;;;20.60;66.40;;;;;;5068853;28;20213;-65
2023/10/11 10:51:31;;;;;;;8.63;5.90;;;20.60;66.20;;;;;;5068486;28;20210;-66
2023/10/11 10:54:03;;;;;;;8.90;6.50;;;20.70;66.30;;;;;;5069429;28;20312;-66
2023/10/11 10:56:30;;;;;;;9.23;6.20;;;20.70;66.30;;;;;;5067360;28;20191;-66
2023/10/11 10:59:08;;;;;;;11.45;6.32;;;20.70;66.30;;;;;;5062607;28;20214;-67
2023/10/11 11:01:35;;;;;;;7.72;5.97;;;20.70;66.20;;;;;;5069473;28;20210;-66
2023/10/11 11:04:07;;;;;;;9.90;6.35;;;20.70;66.10;;;;;;5069959;28;20194;-66
2023/10/11 11:06:41;;;;;;;9.15;6.32;;;20.70;66.00;;;;;;5068538;28;20244;-66
2023/10/11 11:09:15;;;;;;;9.18;6.22;;;20.70;66.00;;;;;;5063812;28;20720;-66
2023/10/11 11:18:04;;;;;;;10.13;5.97;;;20.70;65.80;;;;;;5001672;28;20205;-66
2023/10/11 11:20:33;;;;;;;9.45;5.80;;;20.70;65.80;;;;;;5004831;28;20225;-66
2023/10/11 11:26:31;;;;;;;;;;;;;;;;;;;;;
2023/10/11 11:32:57;;;;;;;7.82;5.72;;;20.70;65.80;;;;;;4965107;28;20731;-66
2023/10/11 11:35:45;;;;;;;8.57;5.68;;;20.70;65.80;;;;;;4968192;28;20274;-66
2023/10/11 11:38:20;;;;;;;9.75;6.00;;;20.70;65.80;;;;;;4968426;28;20218;-66
2023/10/11 11:41:03;;;;;;;7.63;5.43;;;20.70;65.80;;;;;;4966723;28;20226;-66
2023/10/11 11:43:38;;;;;;;7.50;5.35;;;20.70;65.80;;;;;;4964638;28;20268;-66
2023/10/11 11:48:50;;;;;;;8.93;5.70;;;20.70;65.80;;;;;;4964883;28;20226;-64
2023/10/11 11:51:18;;;;;;;8.13;5.45;;;20.60;65.70;;;;;;4968488;28;20202;-66
2023/10/11 11:53:49;;;;;;;8.43;5.80;;;20.70;65.90;;;;;;4968295;28;20317;-66
2023/10/11 11:59:00;;;;;;;7.05;5.43;;;20.60;65.80;;;;;;4965514;28;20226;-66
2023/10/11 12:01:44;;;;;;;8.82;5.93;;;20.70;66.00;;;;;;4973789;28;20637;-65
2023/10/11 12:04:13;;;;;;;9.88;5.65;;;20.70;66.00;;;;;;5054504;28;20210;-64
2023/10/11 12:10:11;;;;;;;7.57;5.53;;;20.60;66.00;;;;;;5060541;28;20789;-63
2023/10/11 12:12:44;;;;;;;8.63;5.78;;;20.70;66.20;;;;;;5063173;28;20223;-65
2023/10/11 12:16:09;;;;;;;7.28;5.25;;;20.70;66.10;;;;;;5065955;28;20273;-66
2023/10/11 12:18:52;;;;;;;6.30;5.35;;;20.70;66.20;;;;;;4977569;28;20248;-64
2023/10/11 12:28:41;;;;;;;8.25;5.65;;;20.70;66.60;;;;;;4938456;28;20499;-65
2023/10/11 12:32:07;;;;;;;13.18;5.25;;;20.70;66.40;;;;;;4929263;28;20330;-65
2023/10/11 12:35:32;;;;;;;9.05;5.70;;;20.70;66.30;;;;;;4944941;28;20215;-65
2023/10/11 12:58:57;;;;;;;10.07;6.10;;;20.80;66.20;;;;;;4903649;29;20232;-63
2023/10/11 13:25:28;;;;;;;13.43;6.63;;;21.00;66.20;;;;;;4874127;29;20227;-63
2023/10/11 13:28:19;;;;;;;10.85;6.63;;;21.10;66.10;;;;;;4923564;28;20290;-65
2023/10/11 13:30:52;;;;;;;13.25;6.47;;;21.10;66.20;;;;;;4970794;28;20214;-65
2023/10/11 13:33:20;;;;;;;11.85;6.90;;;21.20;66.30;;;;;;4976106;28;20222;-63
2023/10/11 13:35:48;;;;;;;9.00;6.68;;;21.20;66.20;;;;;;4975072;28;20210;-64
2023/10/11 13:38:18;;;;;;;10.90;6.70;;;21.30;66.10;;;;;;4973238;28;20222;-63
2023/10/11 13:44:23;;;;;;;;;;;;;;;;;;;;;
2023/10/11 13:53:55;;;;;;;10.15;7.65;;;21.40;65.80;;;;;;4912654;28;20272;-63
2023/10/11 13:56:31;;;;;;;11.60;9.38;;;21.40;65.70;;;;;;5018810;28;20213;-63
2023/10/11 13:58:59;;;;;;;13.98;8.15;;;21.50;65.80;;;;;;5050191;28;20233;-61
2023/10/11 14:02:13;;;;;;;11.48;7.32;;;21.50;65.70;;;;;;5049470;28;20230;-63
2023/10/11 14:04:56;;;;;;;12.35;7.40;;;21.50;65.60;;;;;;5005974;28;20219;-64
2023/10/11 14:08:19;;;;;;;15.32;8.15;;;21.50;65.50;;;;;;4997155;28;20697;-64
2023/10/11 14:32:10;;;;;;;9.68;6.55;;;21.50;65.50;;;;;;4915419;29;20299;-66
2023/10/11 14:34:37;;;;;;;13.43;7.45;;;21.50;65.50;;;;;;4837618;29;21006;-66
2023/10/11 14:37:07;;;;;;;9.80;7.05;;;21.40;65.40;;;;;;4922885;29;20204;-65
2023/10/11 14:42:17;;;;;;;11.57;7.30;;;21.50;65.60;;;;;;4925659;29;20234;-64
2023/10/11 14:48:17;;;;;;;10.23;6.45;;;21.50;65.50;;;;;;4840684;29;20214;-65
2023/10/11 14:50:44;;;;;;;10.95;6.93;;;21.50;65.60;;;;;;4909376;28;21194;-65
2023/10/11 14:53:14;;;;;;;12.15;6.97;;;21.50;65.50;;;;;;4926641;29;20208;-65
2023/10/11 14:55:56;;;;;;;13.00;7.28;;;21.50;65.50;;;;;;4929531;28;20203;-63
2023/10/11 15:01:14;;;;;;;11.35;6.68;;;21.50;65.50;;;;;;4907646;28;20232;-64
2023/10/11 15:13:32;;;;;;;12.23;6.18;;;21.40;65.80;;;;;;4976324;28;20327;-63
2023/10/11 15:16:00;;;;;;;11.48;6.43;;;21.40;65.90;;;;;;4972293;28;20206;-64
2023/10/11 15:28:40;;;;;;;;;;;;;;;;;;;;;
2023/10/11 15:31:58;;;;;;;12.70;7.22;;;21.40;65.80;;;;;;4886550;29;20207;-65
2023/10/11 15:34:30;;;;;;;15.48;6.90;;;21.40;65.80;;;;;;4900135;29;20234;-65
2023/10/11 15:36:58;;;;;;;12.55;6.97;;;21.40;65.80;;;;;;4906353;29;20299;-65
2023/10/11 15:40:05;;;;;;;14.48;6.85;;;21.40;65.80;;;;;;4896834;29;20224;-64
2023/10/11 15:42:33;;;;;;;11.68;6.55;;;21.40;65.80;;;;;;4892335;29;20413;-65
2023/10/11 15:51:55;;;;;;;12.55;6.90;;;21.40;65.90;;;;;;4898252;29;20220;-64
2023/10/11 15:54:26;;;;;;;11.77;6.88;;;21.40;65.80;;;;;;4903893;29;20531;-64
2023/10/11 16:03:39;;;;;;;;;;;;;;;;;;;;;
2023/10/11 16:06:20;;;;;;;9.32;6.55;;;21.40;65.90;;;;;;4840612;29;20711;-64
2023/10/11 16:08:49;;;;;;;11.18;7.55;;;21.30;65.80;;;;;;4871316;29;20198;-64
2023/10/11 16:11:16;;;;;;;9.88;6.63;;;21.40;65.70;;;;;;4860820;29;20214;-64
2023/10/11 16:13:48;;;;;;;11.40;6.50;;;21.40;65.70;;;;;;4867316;29;20200;-64
2023/10/11 16:16:17;;;;;;;13.18;6.88;;;21.30;65.50;;;;;;4871681;29;20199;-64
2023/10/11 16:18:55;;;;;;;9.52;6.85;;;21.30;65.50;;;;;;4876702;29;20293;-64
2023/10/11 16:21:23;;;;;;;10.30;6.25;;;21.20;65.30;;;;;;4876948;29;20214;-63
2023/10/11 16:23:52;;;;;;;10.77;7.18;;;21.20;65.40;;;;;;4913747;29;20293;-63
2023/10/11 16:26:22;;;;;;;9.23;6.28;;;21.10;65.30;;;;;;4967016;28;20223;-64
2023/10/11 16:28:49;;;;;;;9.48;6.38;;;21.10;65.30;;;;;;5057477;28;20223;-63
2023/10/11 16:31:17;;;;;;;8.30;6.10;;;21.00;65.30;;;;;;5072702;28;20195;-64
2023/10/11 16:33:47;;;;;;;9.35;6.28;;;21.00;65.50;;;;;;5073423;28;20191;-64
2023/10/11 16:36:16;;;;;;;10.02;6.85;;;21.00;65.70;;;;;;5070993;28;20187;-64
2023/10/11 16:41:35;;;;;;;;;;;;;;;;;;;;;
2023/10/11 16:44:03;;;;;;;7.57;6.13;;;20.90;65.70;;;;;;5071932;28;20222;-63
2023/10/11 16:46:31;;;;;;;9.98;6.30;;;20.90;65.90;;;;;;5071987;28;20199;-63
2023/10/11 16:49:00;;;;;;;10.48;6.68;;;20.80;66.50;;;;;;5072098;28;20210;-64
2023/10/11 16:51:29;;;;;;;8.80;6.65;;;20.80;65.80;;;;;;5072421;28;20685;-64
2023/10/11 16:53:57;;;;;;;9.40;6.88;;;20.80;65.90;;;;;;5071888;28;20233;-64
2023/10/11 16:56:27;;;;;;;9.20;6.35;;;20.80;65.90;;;;;;5073201;28;20187;-63
2023/10/11 16:59:05;;;;;;;10.75;6.53;;;20.80;65.90;;;;;;5073010;28;20183;-65
2023/10/11 17:01:34;;;;;;;10.25;6.88;;;20.80;66.70;;;;;;5018575;28;20224;-64
2023/10/11 17:06:58;;;;;;;9.68;6.03;;;20.70;65.90;;;;;;5008855;28;20276;-64
2023/10/11 17:09:25;;;;;;;9.05;6.47;;;20.70;66.00;;;;;;5070944;28;20230;-64
2023/10/11 17:11:53;;;;;;;10.07;6.75;;;20.70;66.00;;;;;;5071941;28;20191;-64
2023/10/11 17:17:26;;;;;;;7.93;6.18;;;20.70;66.00;;;;;;5063469;28;20344;-64
2023/10/11 17:19:56;;;;;;;9.65;6.43;;;20.70;66.00;;;;;;5067313;28;20222;-64
2023/10/11 17:22:24;;;;;;;9.15;6.65;;;20.60;66.00;;;;;;5064551;28;20632;-64
2023/10/11 17:24:51;;;;;;;10.02;6.60;;;20.60;66.00;;;;;;5071705;28;20221;-63
2023/10/11 17:27:20;;;;;;;9.35;6.65;;;20.60;66.00;;;;;;5071624;28;20198;-62